Terminal Aerodrome Forecast
Issued by NWS

Home | Current Version | Previous Version | Text Only | Print | Product List | Glossary On
Versions: 1 2 3 4 5 6 7 8 9 10 11 12 13 14 15
000
FTUS43 KMQT 291727
TAFSAW
TAF
KSAW 291727Z 2918/3018 28006KT P6SM SCT045
     FM292000 35003KT P6SM SCT050
     FM292200 00000KT P6SM FEW070
     FM300900 22003KT 5SM BR FEW025
     FM301300 22005KT P6SM FEW030=

USA.gov is the U.S. government's official web portal to all federal, state and local government web resources and services.